createdAt,value
2023-04-20T00:01:44.997Z,3.81
2023-04-20T00:04:11.481Z,3.86
2023-04-20T00:06:37.655Z,3.95
2023-04-20T00:09:04.011Z,4.01
2023-04-20T00:11:30.388Z,4.07
2023-04-20T00:13:56.521Z,4.12
2023-04-20T00:16:22.665Z,4.18
2023-04-20T00:18:48.890Z,4.24
2023-04-20T00:21:15.182Z,4.29
2023-04-20T00:23:41.601Z,4.34
2023-04-20T00:26:07.762Z,4.38
2023-04-20T00:28:33.892Z,4.44
2023-04-20T00:31:00.013Z,4.52
2023-04-20T00:33:26.213Z,4.58
2023-04-20T00:35:52.315Z,4.62
2023-04-20T00:38:18.389Z,4.65
2023-04-20T00:40:48.141Z,4.66
2023-04-20T00:43:14.275Z,4.66
2023-04-20T00:45:40.481Z,4.66
2023-04-20T00:48:06.744Z,4.66
2023-04-20T00:50:32.936Z,4.69
2023-04-20T00:52:58.980Z,4.71
2023-04-20T00:55:25.105Z,4.71
2023-04-20T00:57:51.295Z,4.73
2023-04-20T01:00:17.492Z,4.74
2023-04-20T01:02:43.766Z,4.77
2023-04-20T01:05:10.275Z,4.78
2023-04-20T01:07:36.342Z,4.78
2023-04-20T01:10:02.395Z,4.72
2023-04-20T01:12:28.493Z,4.59
2023-04-20T01:14:54.608Z,4.50
2023-04-20T01:17:21.532Z,4.44
2023-04-20T01:19:48.441Z,4.38
2023-04-20T01:22:14.521Z,4.37
2023-04-20T01:24:40.818Z,4.36
2023-04-20T01:27:07.051Z,4.33
2023-04-20T01:29:33.600Z,4.33
2023-04-20T01:31:59.836Z,4.33
2023-04-20T01:34:26.262Z,4.33
2023-04-20T01:36:52.314Z,4.31
2023-04-20T01:39:18.671Z,4.32
2023-04-20T01:41:45.218Z,4.34
2023-04-20T01:44:11.274Z,4.39
2023-04-20T01:46:38.646Z,4.41
2023-04-20T01:49:05.003Z,4.43
2023-04-20T01:51:32.318Z,4.45
2023-04-20T01:53:58.499Z,4.49
2023-04-20T01:56:24.650Z,4.56
2023-04-20T01:58:50.723Z,4.62
2023-04-20T02:01:16.850Z,4.68
2023-04-20T02:03:43.325Z,4.71
2023-04-20T02:06:09.646Z,4.73
2023-04-20T02:08:35.693Z,4.78
2023-04-20T02:11:02.179Z,4.82
2023-04-20T02:13:28.256Z,4.87
2023-04-20T02:15:54.880Z,4.89
2023-04-20T02:18:21.996Z,4.89
2023-04-20T02:20:48.087Z,4.90
2023-04-20T02:23:14.197Z,4.90
2023-04-20T02:25:40.350Z,4.90
2023-04-20T02:28:06.600Z,4.90
2023-04-20T02:30:32.689Z,4.90
2023-04-20T02:32:58.840Z,4.90
2023-04-20T02:35:25.510Z,4.89
2023-04-20T02:37:51.564Z,4.87
2023-04-20T02:40:17.743Z,4.87
2023-04-20T02:42:43.849Z,4.86
2023-04-20T02:45:10.396Z,4.86
2023-04-20T02:47:36.502Z,4.88
2023-04-20T02:50:03.320Z,4.90
2023-04-20T02:52:29.367Z,4.92
2023-04-20T02:54:55.838Z,4.96
2023-04-20T02:57:22.228Z,4.99
2023-04-20T02:59:48.382Z,5.03
2023-04-20T03:02:14.568Z,5.06
2023-04-20T03:04:40.847Z,5.10
2023-04-20T03:07:07.164Z,5.15
2023-04-20T03:09:33.447Z,5.18
2023-04-20T03:12:01.612Z,5.19
2023-04-20T03:14:27.741Z,5.22
2023-04-20T03:16:54.114Z,5.23
2023-04-20T03:19:20.248Z,5.23
2023-04-20T03:21:46.356Z,5.22
2023-04-20T03:24:12.444Z,5.22
2023-04-20T03:26:38.493Z,5.20
2023-04-20T03:29:04.733Z,5.21
2023-04-20T03:31:30.887Z,5.23
2023-04-20T03:33:57.034Z,5.23
2023-04-20T03:36:23.183Z,5.26
2023-04-20T03:38:49.355Z,5.28
2023-04-20T03:41:15.639Z,5.29
2023-04-20T03:43:41.729Z,5.31
2023-04-20T03:46:07.849Z,5.33
2023-04-20T03:48:33.957Z,5.35
2023-04-20T03:51:00.404Z,5.35
2023-04-20T03:53:28.356Z,5.34
2023-04-20T03:55:54.740Z,5.34
2023-04-20T03:58:21.063Z,5.31
2023-04-20T04:03:32.790Z,5.26
2023-04-20T04:06:01.765Z,5.23
2023-04-20T04:08:29.501Z,5.24
2023-04-20T04:10:57.175Z,5.23
2023-04-20T04:13:24.734Z,5.23
2023-04-20T04:15:52.401Z,5.21
2023-04-20T04:18:20.233Z,5.18
2023-04-20T04:20:47.975Z,5.12
2023-04-20T04:23:15.703Z,5.09
2023-04-20T04:25:43.811Z,5.09
2023-04-20T04:28:11.971Z,5.06
2023-04-20T05:05:55.601Z,5.41
2023-04-20T05:08:23.659Z,5.45
2023-04-20T05:10:49.954Z,5.48
2023-04-20T05:13:16.102Z,5.49
2023-04-20T05:15:43.839Z,5.51
2023-04-20T05:18:10.402Z,5.55
2023-04-20T05:20:36.567Z,5.60
2023-04-20T05:23:02.789Z,5.64
2023-04-20T05:25:28.893Z,5.69
2023-04-20T05:27:55.041Z,5.73
2023-04-20T05:30:22.047Z,5.78
2023-04-20T05:32:51.507Z,5.80
2023-04-20T05:35:18.660Z,5.84
2023-04-20T05:37:44.797Z,5.86
2023-04-20T05:40:11.111Z,5.90
2023-04-20T05:42:37.322Z,5.93
2023-04-20T05:45:03.826Z,5.95
2023-04-20T05:47:30.460Z,6.00
2023-04-20T05:49:56.594Z,6.03
2023-04-20T05:52:22.672Z,6.06
2023-04-20T05:54:49.152Z,6.10
2023-04-20T05:57:15.418Z,6.13
2023-04-20T05:59:41.504Z,6.17
2023-04-20T06:02:07.748Z,6.19
2023-04-20T06:04:34.212Z,6.23
2023-04-20T06:07:00.553Z,6.25
2023-04-20T06:09:26.652Z,6.25
2023-04-20T06:11:52.786Z,6.28
2023-04-20T06:14:18.904Z,6.31
2023-04-20T06:16:45.169Z,6.36
2023-04-20T06:19:11.278Z,6.43
2023-04-20T06:21:37.398Z,6.49
2023-04-20T06:24:03.465Z,6.58
2023-04-20T06:26:30.189Z,6.62
2023-04-20T06:28:56.266Z,6.68
2023-04-20T06:31:22.511Z,6.70
2023-04-20T06:33:48.834Z,6.77
2023-04-20T06:36:15.088Z,6.83
2023-04-20T06:38:41.433Z,6.86
2023-04-20T06:41:07.551Z,6.90
2023-04-20T06:43:33.677Z,6.96
2023-04-20T06:45:59.753Z,7.06
2023-04-20T06:48:32.306Z,7.12
2023-04-20T06:50:59.087Z,7.21
2023-04-20T06:53:25.577Z,7.30
2023-04-20T06:55:51.888Z,7.37
2023-04-20T06:58:18.011Z,7.46
2023-04-20T07:00:44.338Z,7.56
2023-04-20T07:03:11.030Z,7.66
2023-04-20T07:05:37.283Z,7.75
2023-04-20T07:08:03.358Z,7.87
2023-04-20T07:10:29.650Z,8.00
2023-04-20T07:12:55.855Z,8.11
2023-04-20T07:15:22.352Z,8.19
2023-04-20T07:17:48.737Z,8.28
2023-04-20T07:20:14.950Z,8.36
2023-04-20T07:22:41.165Z,8.37
2023-04-20T07:25:07.294Z,8.47
2023-04-20T07:27:34.452Z,8.59
2023-04-20T07:30:01.210Z,8.66
2023-04-20T07:32:27.481Z,8.73
2023-04-20T07:34:53.762Z,8.73
2023-04-20T07:37:19.937Z,8.68
2023-04-20T07:39:46.033Z,8.62
2023-04-20T07:42:12.128Z,8.60
2023-04-20T07:44:38.702Z,8.61
2023-04-20T07:47:05.215Z,8.65
2023-04-20T07:49:31.329Z,8.65
2023-04-20T07:52:09.232Z,8.67
2023-04-20T07:54:36.038Z,8.70
2023-04-20T07:57:02.811Z,8.73
2023-04-20T07:59:32.218Z,8.79
2023-04-20T08:01:59.670Z,8.80
2023-04-20T08:04:26.060Z,8.84
2023-04-20T08:06:52.493Z,8.93
2023-04-20T08:09:18.801Z,8.95
2023-04-20T08:11:45.579Z,9.04
2023-04-20T08:14:11.898Z,9.08
2023-04-20T08:16:38.035Z,9.27
2023-04-20T08:19:09.473Z,9.26
2023-04-20T08:21:35.551Z,9.24
2023-04-20T08:24:01.694Z,9.23
2023-04-20T08:26:27.793Z,9.22
2023-04-20T08:28:54.160Z,9.17
2023-04-20T08:31:20.350Z,9.10
2023-04-20T08:33:46.596Z,9.06
2023-04-20T08:36:12.935Z,9.10
2023-04-20T08:38:39.073Z,9.09
2023-04-20T08:41:05.157Z,9.10
2023-04-20T08:43:31.286Z,9.14
2023-04-20T08:45:57.503Z,9.14
2023-04-20T08:48:23.569Z,9.12
2023-04-20T08:50:49.783Z,9.13
2023-04-20T08:53:16.096Z,9.18
2023-04-20T08:55:42.266Z,9.18
2023-04-20T08:58:08.363Z,9.18
2023-04-20T09:00:34.806Z,9.25
2023-04-20T09:03:01.530Z,9.34
2023-04-20T09:05:27.926Z,9.46
2023-04-20T09:07:54.274Z,9.48
2023-04-20T09:10:20.392Z,9.49
2023-04-20T09:12:46.477Z,9.56
2023-04-20T09:15:13.017Z,9.54
2023-04-20T09:17:40.252Z,9.53
2023-04-20T09:20:06.910Z,9.50
2023-04-20T09:22:33.074Z,9.58
2023-04-20T09:24:59.124Z,9.65
2023-04-20T09:27:25.819Z,9.65
2023-04-20T09:29:51.930Z,9.69
2023-04-20T09:32:18.073Z,9.73
2023-04-20T09:34:44.502Z,9.74
2023-04-20T09:37:10.628Z,9.79
2023-04-20T09:39:36.702Z,9.86
2023-04-20T09:42:02.852Z,9.95
2023-04-20T09:44:28.958Z,10.00
2023-04-20T09:46:55.120Z,10.06
2023-04-20T09:49:21.188Z,10.11
2023-04-20T09:51:47.373Z,10.13
2023-04-20T09:54:13.484Z,10.16
2023-04-20T09:56:39.677Z,10.20
2023-04-20T09:59:06.373Z,10.26
2023-04-20T10:01:33.879Z,10.29
2023-04-20T10:04:00.281Z,10.35
2023-04-20T10:06:27.089Z,10.40
2023-04-20T10:08:53.161Z,10.38
2023-04-20T10:11:19.269Z,10.36
2023-04-20T10:13:45.393Z,10.41
2023-04-20T10:16:12.414Z,10.43
2023-04-20T10:18:38.725Z,10.35
2023-04-20T10:21:05.392Z,10.35
2023-04-20T10:23:31.507Z,10.40
2023-04-20T10:25:57.916Z,10.45
2023-04-20T10:28:24.365Z,10.57
2023-04-20T10:30:50.550Z,10.63
2023-04-20T10:33:17.419Z,10.64
2023-04-20T10:35:45.828Z,10.61
2023-04-20T10:38:12.225Z,10.66
2023-04-20T10:40:38.308Z,10.69
2023-04-20T10:43:04.453Z,10.77
2023-04-20T10:45:30.546Z,10.88
2023-04-20T10:47:56.702Z,10.97
2023-04-20T10:50:23.133Z,11.04
2023-04-20T10:52:49.646Z,11.10
2023-04-20T10:55:15.693Z,11.18
2023-04-20T10:57:41.858Z,11.19
2023-04-20T11:00:09.972Z,11.21
2023-04-20T11:02:37.016Z,11.26
2023-04-20T11:05:03.789Z,11.25
2023-04-20T11:07:30.036Z,11.19
2023-04-20T11:09:56.931Z,11.23
2023-04-20T11:12:23.150Z,11.32
2023-04-20T11:14:49.213Z,11.35
2023-04-20T11:17:15.503Z,11.38
2023-04-20T11:19:41.926Z,11.39
2023-04-20T11:22:08.521Z,11.45
2023-04-20T11:24:35.307Z,11.50
2023-04-20T11:27:01.715Z,11.54
2023-04-20T11:29:27.896Z,11.54
2023-04-20T11:31:54.011Z,11.52
2023-04-20T11:34:20.690Z,11.54
2023-04-20T11:36:47.884Z,11.57
2023-04-20T11:39:13.978Z,11.53
2023-04-20T11:41:41.807Z,11.54
2023-04-20T11:44:08.070Z,11.66
2023-04-20T11:46:34.259Z,11.76
2023-04-20T11:49:01.605Z,11.89
2023-04-20T11:51:27.781Z,11.95
2023-04-20T11:53:53.928Z,11.96
2023-04-20T11:56:20.148Z,11.98
2023-04-20T11:58:46.602Z,12.05
2023-04-20T12:01:12.697Z,12.19
2023-04-20T12:03:38.908Z,12.34
2023-04-20T12:06:06.650Z,12.38
2023-04-20T12:08:32.747Z,12.45
2023-04-20T12:10:58.911Z,12.46
2023-04-20T12:13:25.053Z,12.47
2023-04-20T12:15:51.169Z,12.49
2023-04-20T12:18:17.810Z,12.43
2023-04-20T12:20:46.296Z,12.39
2023-04-20T12:23:12.369Z,12.39
2023-04-20T12:25:38.508Z,12.35
2023-04-20T12:28:06.652Z,12.40
2023-04-20T12:30:33.943Z,12.46
2023-04-20T12:33:00.271Z,12.57
2023-04-20T12:35:26.560Z,12.81
2023-04-20T12:37:52.843Z,12.72
2023-04-20T12:40:19.076Z,12.49
2023-04-20T12:42:45.189Z,12.25
2023-04-20T12:45:11.303Z,12.13
2023-04-20T12:47:37.613Z,12.35
2023-04-20T12:50:04.051Z,12.65
2023-04-20T12:52:30.283Z,12.95
2023-04-20T12:54:56.437Z,13.27
2023-04-20T12:57:22.543Z,13.50
2023-04-20T12:59:48.622Z,13.62
2023-04-20T13:02:15.047Z,13.34
2023-04-20T13:04:41.439Z,13.31
2023-04-20T13:07:07.645Z,13.48
2023-04-20T13:09:33.784Z,13.44
2023-04-20T13:11:59.890Z,13.33
2023-04-20T13:14:26.126Z,13.18
2023-04-20T13:16:54.991Z,13.06
2023-04-20T13:19:21.639Z,12.99
2023-04-20T13:21:47.715Z,12.93
2023-04-20T13:24:13.888Z,12.89
2023-04-20T13:26:40.020Z,12.79
2023-04-20T13:29:06.275Z,12.67
2023-04-20T13:31:32.448Z,12.61
2023-04-20T13:33:58.554Z,12.60
2023-04-20T13:36:25.017Z,12.60
2023-04-20T13:38:52.774Z,12.53
2023-04-20T13:41:18.857Z,12.52
2023-04-20T13:43:45.104Z,12.53
2023-04-20T13:46:11.324Z,12.58
2023-04-20T13:48:37.392Z,12.73
2023-04-20T13:51:03.641Z,12.77
2023-04-20T13:53:29.742Z,12.79
2023-04-20T13:55:55.805Z,12.79
2023-04-20T13:58:21.914Z,12.79
2023-04-20T14:00:48.007Z,12.68
2023-04-20T14:03:14.840Z,12.57
2023-04-20T14:05:41.362Z,12.51
2023-04-20T14:08:07.565Z,12.44
2023-04-20T14:10:33.682Z,12.43
2023-04-20T14:13:00.590Z,12.45
2023-04-20T14:15:27.010Z,12.50
2023-04-20T14:17:53.148Z,12.54
2023-04-20T14:20:19.323Z,12.61
2023-04-20T14:22:45.504Z,12.66
2023-04-20T14:25:11.599Z,12.71
2023-04-20T14:27:37.773Z,12.74
2023-04-20T14:30:04.106Z,12.64
2023-04-20T14:32:30.259Z,12.52
2023-04-20T14:34:56.498Z,12.41
2023-04-20T14:37:24.318Z,12.28
2023-04-20T14:39:50.583Z,12.16
2023-04-20T14:42:16.647Z,12.07
2023-04-20T14:44:42.800Z,12.05
2023-04-20T14:47:08.896Z,12.05
2023-04-20T14:49:35.093Z,12.01
2023-04-20T14:52:01.307Z,11.94
2023-04-20T14:54:28.938Z,11.86
2023-04-20T14:56:55.738Z,11.83
2023-04-20T14:59:23.898Z,11.80
2023-04-20T15:02:01.834Z,11.80
2023-04-20T15:04:28.862Z,11.81
2023-04-20T15:06:55.274Z,11.82
2023-04-20T15:09:21.343Z,11.80
2023-04-20T15:11:47.412Z,11.77
2023-04-20T15:14:13.590Z,11.76
2023-04-20T15:16:40.082Z,11.73
2023-04-20T15:19:06.250Z,11.71
2023-04-20T15:21:32.737Z,11.70
2023-04-20T15:23:58.797Z,11.69
2023-04-20T15:26:25.089Z,11.66
2023-04-20T15:28:51.183Z,11.61
2023-04-20T15:31:17.959Z,11.61
2023-04-20T15:33:44.805Z,11.63
2023-04-20T15:36:11.208Z,11.66
2023-04-20T15:38:37.286Z,11.70
2023-04-20T15:41:03.703Z,11.79
2023-04-20T15:43:29.985Z,11.90
2023-04-20T15:45:56.170Z,12.01
2023-04-20T15:48:22.364Z,12.09
2023-04-20T15:50:48.436Z,12.16
2023-04-20T15:53:14.515Z,12.18
2023-04-20T15:55:40.763Z,12.17
2023-04-20T15:58:06.827Z,12.15
2023-04-20T16:00:33.157Z,12.15
2023-04-20T16:03:00.796Z,12.08
2023-04-20T16:05:26.957Z,12.00
2023-04-20T16:07:54.125Z,11.96
2023-04-20T16:10:20.281Z,11.94
2023-04-20T16:12:46.430Z,11.88
2023-04-20T16:15:12.639Z,11.83
2023-04-20T16:17:38.868Z,11.80
2023-04-20T16:20:05.093Z,11.80
2023-04-20T16:22:31.441Z,11.79
2023-04-20T16:24:57.648Z,11.78
2023-04-20T16:27:23.707Z,11.74
2023-04-20T16:29:49.979Z,11.71
2023-04-20T16:32:16.099Z,11.66
2023-04-20T16:34:42.181Z,11.58
2023-04-20T16:37:08.270Z,11.52
2023-04-20T16:39:34.605Z,11.49
2023-04-20T16:42:02.331Z,11.48
2023-04-20T16:44:28.429Z,11.46
2023-04-20T16:46:55.147Z,11.45
2023-04-20T16:49:21.254Z,11.43
2023-04-20T16:51:47.562Z,11.39
2023-04-20T16:54:13.665Z,11.38
2023-04-20T16:56:40.002Z,11.38
2023-04-20T16:59:06.132Z,11.39
2023-04-20T17:01:32.673Z,11.39
2023-04-20T17:03:58.990Z,11.38
2023-04-20T17:06:25.483Z,11.37
2023-04-20T17:08:51.673Z,11.41
2023-04-20T17:11:18.780Z,11.40
2023-04-20T17:13:44.915Z,11.39
2023-04-20T17:16:11.054Z,11.41
2023-04-20T17:18:39.742Z,11.42
2023-04-20T17:21:07.314Z,11.43
2023-04-20T17:23:33.392Z,11.40
2023-04-20T17:25:59.557Z,11.34
2023-04-20T17:28:25.702Z,11.26
2023-04-20T17:30:51.832Z,11.23
2023-04-20T17:33:17.932Z,11.24
2023-04-20T17:35:45.755Z,11.23
2023-04-20T17:38:11.934Z,11.21
2023-04-20T17:40:38.119Z,11.19
2023-04-20T17:43:04.336Z,11.11
2023-04-20T17:45:30.465Z,11.06
2023-04-20T17:47:56.590Z,11.10
2023-04-20T17:50:22.849Z,11.07
2023-04-20T17:52:51.775Z,11.06
2023-04-20T17:55:18.029Z,11.07
2023-04-20T17:57:44.125Z,11.05
2023-04-20T18:00:10.995Z,11.03
2023-04-20T18:02:37.235Z,11.01
2023-04-20T18:05:03.474Z,10.94
2023-04-20T18:07:29.892Z,10.86
2023-04-20T18:09:56.089Z,10.77
2023-04-20T18:12:22.241Z,10.68
2023-04-20T18:14:48.381Z,10.48
2023-04-20T18:17:14.474Z,10.31
2023-04-20T18:19:40.622Z,10.25
2023-04-20T18:22:07.268Z,10.22
2023-04-20T18:24:33.439Z,10.16
2023-04-20T18:27:00.174Z,10.11
2023-04-20T18:29:28.302Z,10.11
2023-04-20T18:31:55.423Z,10.11
2023-04-20T18:34:21.556Z,10.10
2023-04-20T18:36:47.665Z,10.00
2023-04-20T18:39:14.397Z,9.93
2023-04-20T18:41:40.565Z,9.91
2023-04-20T18:44:06.872Z,9.93
2023-04-20T18:46:33.136Z,9.94
2023-04-20T18:48:59.457Z,9.91
2023-04-20T18:51:25.640Z,9.88
2023-04-20T18:53:52.134Z,9.88
2023-04-20T18:56:18.299Z,9.89
2023-04-20T18:58:44.617Z,9.90
2023-04-20T19:01:10.741Z,9.90
2023-04-20T19:03:37.012Z,9.88
2023-04-20T19:06:06.502Z,9.84
2023-04-20T19:08:33.364Z,9.79
2023-04-20T19:10:59.976Z,9.79
2023-04-20T19:13:26.469Z,9.78
2023-04-20T19:15:52.584Z,9.80
2023-04-20T19:18:18.737Z,9.74
2023-04-20T19:20:44.949Z,9.73
2023-04-20T19:23:11.282Z,9.74
2023-04-20T19:25:37.455Z,9.75
2023-04-20T19:28:03.631Z,9.71
2023-04-20T19:30:29.781Z,9.70
2023-04-20T19:32:55.997Z,9.67
2023-04-20T19:35:22.212Z,9.65
2023-04-20T19:37:48.383Z,9.65
2023-04-20T19:40:15.522Z,9.65
2023-04-20T19:42:41.780Z,9.64
2023-04-20T19:45:08.032Z,9.62
2023-04-20T19:47:34.276Z,9.61
2023-04-20T19:50:02.937Z,9.60
2023-04-20T19:52:29.876Z,9.58
2023-04-20T19:54:56.041Z,9.48
2023-04-20T19:57:22.125Z,9.36
2023-04-20T19:59:48.194Z,9.29
2023-04-20T20:02:14.378Z,9.28
2023-04-20T20:04:41.207Z,9.32
2023-04-20T20:07:07.706Z,9.38
2023-04-20T20:09:34.135Z,9.38
2023-04-20T20:12:01.385Z,9.34
2023-04-20T20:14:27.566Z,9.29
2023-04-20T20:16:55.898Z,9.25
2023-04-20T20:19:22.190Z,9.20
2023-04-20T20:21:48.302Z,9.14
2023-04-20T20:24:15.382Z,9.10
2023-04-20T20:26:41.490Z,9.11
2023-04-20T20:29:07.609Z,9.10
2023-04-20T20:31:33.742Z,9.10
2023-04-20T20:34:00.000Z,9.10
2023-04-20T20:36:27.167Z,9.07
2023-04-20T20:38:53.345Z,9.01
2023-04-20T20:41:19.902Z,9.00
2023-04-20T20:43:46.584Z,9.00
2023-04-20T20:46:12.829Z,8.92
2023-04-20T20:48:39.018Z,8.87
2023-04-20T20:51:05.261Z,8.83
2023-04-20T20:53:31.407Z,8.81
2023-04-20T20:55:57.517Z,8.77
2023-04-20T20:58:23.642Z,8.66
2023-04-20T21:00:49.930Z,8.56
2023-04-20T21:03:16.273Z,8.44
2023-04-20T21:05:43.749Z,8.36
2023-04-20T21:08:10.079Z,8.20
2023-04-20T21:10:36.280Z,8.07
2023-04-20T21:13:03.476Z,8.03
2023-04-20T21:15:29.561Z,8.03
2023-04-20T21:17:55.991Z,8.00
2023-04-20T21:20:22.083Z,7.97
2023-04-20T21:22:48.444Z,7.94
2023-04-20T21:25:14.638Z,7.87
2023-04-20T21:27:40.940Z,7.78
2023-04-20T21:30:07.010Z,7.69
2023-04-20T21:32:33.108Z,7.61
2023-04-20T21:34:59.200Z,7.55
2023-04-20T21:37:25.503Z,7.53
2023-04-20T21:39:51.777Z,7.53
2023-04-20T21:42:17.848Z,7.51
2023-04-20T21:44:44.102Z,7.49
2023-04-20T21:47:10.376Z,7.45
2023-04-20T21:49:36.497Z,7.39
2023-04-20T21:52:02.869Z,7.32
2023-04-20T21:54:29.320Z,7.29
2023-04-20T21:56:56.319Z,7.29
2023-04-20T21:59:22.594Z,7.28
2023-04-20T22:01:50.921Z,7.21
2023-04-20T22:04:17.707Z,7.13
2023-04-20T22:06:44.083Z,7.05
2023-04-20T22:09:10.254Z,6.98
2023-04-20T22:11:37.064Z,6.87
2023-04-20T22:14:03.206Z,6.77
2023-04-20T22:16:29.469Z,6.71
2023-04-20T22:18:55.640Z,6.69
2023-04-20T22:21:21.846Z,6.70
2023-04-20T22:23:48.010Z,6.71
2023-04-20T22:26:14.143Z,6.67
2023-04-20T22:28:40.484Z,6.63
2023-04-20T22:31:06.720Z,6.61
2023-04-20T22:33:32.944Z,6.59
2023-04-20T22:35:59.105Z,6.55
2023-04-20T22:38:25.313Z,6.51
2023-04-20T22:40:52.524Z,6.45
2023-04-20T22:43:20.488Z,6.42
2023-04-20T22:45:46.585Z,6.38
2023-04-20T22:48:12.807Z,6.33
2023-04-20T22:50:38.898Z,6.32
2023-04-20T22:53:05.292Z,6.30
2023-04-20T22:55:31.390Z,6.25
2023-04-20T22:57:57.505Z,6.20
2023-04-20T23:00:23.593Z,6.17
2023-04-20T23:02:50.724Z,6.12
2023-04-20T23:05:19.537Z,6.03
2023-04-20T23:07:45.720Z,6.00
2023-04-20T23:10:11.783Z,5.94
2023-04-20T23:12:37.894Z,5.88
2023-04-20T23:15:05.345Z,5.85
2023-04-20T23:17:34.537Z,5.81
2023-04-20T23:20:00.653Z,5.78
2023-04-20T23:22:27.316Z,5.70
2023-04-20T23:24:53.449Z,5.62
2023-04-20T23:27:19.682Z,5.57
2023-04-20T23:29:46.076Z,5.55
2023-04-20T23:32:12.230Z,5.53
2023-04-20T23:34:38.661Z,5.51
2023-04-20T23:37:04.887Z,5.47
2023-04-20T23:39:31.017Z,5.40
2023-04-20T23:41:57.382Z,5.34
2023-04-20T23:44:23.550Z,5.30
2023-04-20T23:46:49.914Z,5.29
2023-04-20T23:49:16.260Z,5.24
2023-04-20T23:51:42.486Z,5.21
2023-04-20T23:54:08.583Z,5.20
2023-04-20T23:56:34.762Z,5.18
2023-04-20T23:59:00.907Z,5.16
